MSD YXWS-YSSY
Flight info
| Callsign | MSD |
|---|---|
| Flight time | N/A |
| Altitude | 1000 |
| Route | ROSEHILL 5 INBOUND |
| Aircraft | H160/L-SBDGRY/S |
Departure
| Time | N/A |
|---|---|
| Airport | YXWS |
Arrival
| Time | 2026-05-04 10:51 |
|---|---|
| Airport | Sydney Kingsford Smith International Airport (YSSY) |
| Time | Latitude | Longitude | Altitude | Speed | Heading |
|---|---|---|---|---|---|
| 2026-05-04 10:37 | -33.80264 | 150.99005 | 103 ft | 0 kts | 10° |
| 2026-05-04 10:41 | -33.80256 | 150.99007 | 191 ft | 3 kts | 336° |
| 2026-05-04 10:41 | -33.80227 | 150.99004 | 327 ft | 5 kts | 131° |
| 2026-05-04 10:41 | -33.80221 | 150.99022 | 471 ft | 16 kts | 126° |
| 2026-05-04 10:41 | -33.80360 | 150.99260 | 692 ft | 43 kts | 133° |
| 2026-05-04 10:42 | -33.80547 | 150.99520 | 872 ft | 40 kts | 130° |
| 2026-05-04 10:42 | -33.80755 | 150.99761 | 951 ft | 42 kts | 117° |
| 2026-05-04 10:42 | -33.80809 | 151.00096 | 984 ft | 45 kts | 70° |
| 2026-05-04 10:42 | -33.80639 | 151.00400 | 995 ft | 52 kts | 27° |
| 2026-05-04 10:43 | -33.80281 | 151.00481 | 1007 ft | 54 kts | 346° |
| 2026-05-04 10:44 | -33.80944 | 151.00622 | 1016 ft | 57 kts | 34° |
| 2026-05-04 10:45 | -33.80926 | 151.01107 | 1017 ft | 70 kts | 120° |
| 2026-05-04 10:45 | -33.81373 | 151.01345 | 1018 ft | 72 kts | 165° |
| 2026-05-04 10:45 | -33.81845 | 151.01509 | 1016 ft | 71 kts | 152° |
| 2026-05-04 10:45 | -33.82271 | 151.01842 | 998 ft | 84 kts | 134° |
| 2026-05-04 10:46 | -33.82775 | 151.02298 | 1016 ft | 89 kts | 144° |
| 2026-05-04 10:46 | -33.83331 | 151.02631 | 1014 ft | 91 kts | 158° |
| 2026-05-04 10:46 | -33.83959 | 151.02952 | 987 ft | 116 kts | 150° |
| 2026-05-04 10:46 | -33.84665 | 151.03459 | 1020 ft | 116 kts | 145° |
| 2026-05-04 10:47 | -33.85331 | 151.03993 | 1018 ft | 115 kts | 144° |
| 2026-05-04 10:47 | -33.86020 | 151.04527 | 996 ft | 125 kts | 142° |
| 2026-05-04 10:47 | -33.86753 | 151.05100 | 1020 ft | 123 kts | 143° |
| 2026-05-04 10:47 | -33.87483 | 151.05643 | 1018 ft | 123 kts | 145° |
| 2026-05-04 10:49 | -33.90705 | 151.11015 | 898 ft | 113 kts | 107° |
| 2026-05-04 10:49 | -33.91138 | 151.11811 | 798 ft | 115 kts | 122° |
| 2026-05-04 10:50 | -33.91613 | 151.12584 | 655 ft | 113 kts | 113° |
| 2026-05-04 10:51 | -33.93082 | 151.15536 | 516 ft | 1 kts | 147° |
| 2026-05-04 10:52 | -33.93082 | 151.15532 | 515 ft | 0 kts | 147° |
| 2026-05-04 10:52 | -33.93083 | 151.15533 | 514 ft | 0 kts | 147° |
| 2026-05-04 10:52 | -33.93082 | 151.15533 | 513 ft | 0 kts | 147° |
| 2026-05-04 10:54 | -33.94138 | 151.17142 | 243 ft | 112 kts | 121° |
| 2026-05-04 10:54 | -33.94188 | 151.17976 | 219 ft | 88 kts | 64° |